sensor_id;sensor_type;location;lat;lon;timestamp;pressure;altitude;pressure_sealevel;temperature;humidity
56604;BME280;42486;47.478;19.036;2023-04-10T00:00:03;100961.88;;;3.04;100.00
56604;BME280;42486;47.478;19.036;2023-04-10T00:03:06;100961.94;;;3.03;100.00
56604;BME280;42486;47.478;19.036;2023-04-10T00:06:10;100954.28;;;3.00;100.00
56604;BME280;42486;47.478;19.036;2023-04-10T00:09:13;100952.63;;;2.99;100.00
56604;BME280;42486;47.478;19.036;2023-04-10T00:12:17;100956.84;;;3.01;100.00
56604;BME280;42486;47.478;19.036;2023-04-10T00:15:19;100951.53;;;3.06;100.00
56604;BME280;42486;47.478;19.036;2023-04-10T00:18:23;100949.94;;;3.02;100.00
56604;BME280;42486;47.478;19.036;2023-04-10T00:21:28;100952.53;;;3.00;100.00
56604;BME280;42486;47.478;19.036;2023-04-10T00:24:31;100942.41;;;2.96;100.00
56604;BME280;42486;47.478;19.036;2023-04-10T00:27:35;100948.28;;;2.99;100.00
56604;BME280;42486;47.478;19.036;2023-04-10T00:30:38;100941.69;;;2.91;100.00
56604;BME280;42486;47.478;19.036;2023-04-10T00:33:41;100936.72;;;2.84;100.00
56604;BME280;42486;47.478;19.036;2023-04-10T00:36:45;100941.00;;;2.85;100.00
56604;BME280;42486;47.478;19.036;2023-04-10T00:39:52;100935.09;;;2.82;100.00
56604;BME280;42486;47.478;19.036;2023-04-10T00:42:55;100937.50;;;2.86;100.00
56604;BME280;42486;47.478;19.036;2023-04-10T00:45:58;100931.72;;;2.80;100.00
56604;BME280;42486;47.478;19.036;2023-04-10T00:49:01;100929.38;;;2.72;100.00
56604;BME280;42486;47.478;19.036;2023-04-10T00:52:04;100923.53;;;2.67;100.00
56604;BME280;42486;47.478;19.036;2023-04-10T00:55:08;100921.97;;;2.61;100.00
56604;BME280;42486;47.478;19.036;2023-04-10T00:58:11;100918.56;;;2.61;100.00
56604;BME280;42486;47.478;19.036;2023-04-10T01:01:15;100925.50;;;2.59;100.00
56604;BME280;42486;47.478;19.036;2023-04-10T01:04:19;100923.84;;;2.56;100.00
56604;BME280;42486;47.478;19.036;2023-04-10T01:10:50;100921.41;;;2.52;100.00
56604;BME280;42486;47.478;19.036;2023-04-10T01:17:12;100917.75;;;2.59;100.00
56604;BME280;42486;47.478;19.036;2023-04-10T01:20:23;100913.47;;;2.58;100.00
56604;BME280;42486;47.478;19.036;2023-04-10T01:29:58;100914.25;;;2.61;100.00
56604;BME280;42486;47.478;19.036;2023-04-10T01:33:04;100914.94;;;2.67;100.00
56604;BME280;42486;47.478;19.036;2023-04-10T01:36:10;100911.59;;;2.63;100.00
56604;BME280;42486;47.478;19.036;2023-04-10T01:39:16;100913.41;;;2.61;100.00
56604;BME280;42486;47.478;19.036;2023-04-10T01:42:20;100906.69;;;2.55;100.00
56604;BME280;42486;47.478;19.036;2023-04-10T01:45:26;100909.31;;;2.54;100.00
56604;BME280;42486;47.478;19.036;2023-04-10T01:48:29;100911.84;;;2.55;100.00
56604;BME280;42486;47.478;19.036;2023-04-10T01:51:33;100913.66;;;2.53;100.00
56604;BME280;42486;47.478;19.036;2023-04-10T01:54:38;100913.78;;;2.49;100.00
56604;BME280;42486;47.478;19.036;2023-04-10T01:57:41;100910.12;;;2.56;100.00
56604;BME280;42486;47.478;19.036;2023-04-10T02:00:44;100909.25;;;2.55;100.00
56604;BME280;42486;47.478;19.036;2023-04-10T02:03:47;100915.41;;;2.51;100.00
56604;BME280;42486;47.478;19.036;2023-04-10T02:07:03;100909.78;;;2.38;100.00
56604;BME280;42486;47.478;19.036;2023-04-10T02:10:14;100906.56;;;2.32;100.00
56604;BME280;42486;47.478;19.036;2023-04-10T02:13:21;100909.19;;;2.30;100.00
56604;BME280;42486;47.478;19.036;2023-04-10T02:16:25;100909.09;;;2.33;100.00
56604;BME280;42486;47.478;19.036;2023-04-10T02:19:29;100908.47;;;2.25;100.00
56604;BME280;42486;47.478;19.036;2023-04-10T02:22:33;100915.63;;;2.15;100.00
56604;BME280;42486;47.478;19.036;2023-04-10T02:25:38;100906.41;;;2.08;100.00
56604;BME280;42486;47.478;19.036;2023-04-10T02:28:41;100907.34;;;2.06;100.00
56604;BME280;42486;47.478;19.036;2023-04-10T02:31:46;100901.28;;;2.07;100.00
56604;BME280;42486;47.478;19.036;2023-04-10T02:34:49;100907.28;;;2.07;100.00
56604;BME280;42486;47.478;19.036;2023-04-10T02:37:52;100909.72;;;2.12;100.00
56604;BME280;42486;47.478;19.036;2023-04-10T02:40:55;100905.63;;;2.05;100.00
56604;BME280;42486;47.478;19.036;2023-04-10T02:43:57;100909.25;;;1.99;100.00
56604;BME280;42486;47.478;19.036;2023-04-10T02:47:01;100896.50;;;1.94;100.00
56604;BME280;42486;47.478;19.036;2023-04-10T02:50:04;100898.06;;;2.00;100.00
56604;BME280;42486;47.478;19.036;2023-04-10T02:53:07;100890.47;;;1.95;100.00
56604;BME280;42486;47.478;19.036;2023-04-10T02:56:10;100887.19;;;1.89;100.00
56604;BME280;42486;47.478;19.036;2023-04-10T02:59:14;100892.09;;;1.98;100.00
56604;BME280;42486;47.478;19.036;2023-04-10T03:02:17;100879.44;;;1.90;100.00
56604;BME280;42486;47.478;19.036;2023-04-10T03:05:20;100882.25;;;1.83;100.00
56604;BME280;42486;47.478;19.036;2023-04-10T03:08:22;100874.63;;;1.78;100.00
56604;BME280;42486;47.478;19.036;2023-04-10T03:11:26;100870.41;;;1.75;100.00
56604;BME280;42486;47.478;19.036;2023-04-10T03:14:29;100870.41;;;1.75;100.00
56604;BME280;42486;47.478;19.036;2023-04-10T03:17:31;100874.06;;;1.68;100.00
56604;BME280;42486;47.478;19.036;2023-04-10T03:20:35;100876.75;;;1.65;100.00
56604;BME280;42486;47.478;19.036;2023-04-10T03:23:38;100872.47;;;1.64;100.00
56604;BME280;42486;47.478;19.036;2023-04-10T03:26:41;100883.59;;;1.65;100.00
56604;BME280;42486;47.478;19.036;2023-04-10T03:29:44;100877.09;;;1.51;100.00
56604;BME280;42486;47.478;19.036;2023-04-10T03:32:47;100880.87;;;1.71;100.00
56604;BME280;42486;47.478;19.036;2023-04-10T03:35:50;100887.50;;;1.78;100.00
56604;BME280;42486;47.478;19.036;2023-04-10T03:38:55;100879.31;;;1.65;100.00
56604;BME280;42486;47.478;19.036;2023-04-10T03:41:58;100874.22;;;1.62;100.00
56604;BME280;42486;47.478;19.036;2023-04-10T03:45:01;100881.94;;;1.62;100.00
56604;BME280;42486;47.478;19.036;2023-04-10T03:48:08;100877.63;;;1.64;100.00
56604;BME280;42486;47.478;19.036;2023-04-10T03:51:11;100882.66;;;1.67;100.00
56604;BME280;42486;47.478;19.036;2023-04-10T03:54:14;100888.81;;;1.63;100.00
56604;BME280;42486;47.478;19.036;2023-04-10T03:57:17;100888.22;;;1.53;100.00
56604;BME280;42486;47.478;19.036;2023-04-10T04:00:23;100893.12;;;1.63;100.00
56604;BME280;42486;47.478;19.036;2023-04-10T04:03:26;100895.50;;;1.69;100.00
56604;BME280;42486;47.478;19.036;2023-04-10T04:06:29;100887.81;;;1.67;100.00
56604;BME280;42486;47.478;19.036;2023-04-10T04:09:32;100894.78;;;1.65;100.00
56604;BME280;42486;47.478;19.036;2023-04-10T04:12:35;100898.00;;;1.72;100.00
56604;BME280;42486;47.478;19.036;2023-04-10T04:15:38;100896.34;;;1.69;100.00
56604;BME280;42486;47.478;19.036;2023-04-10T04:18:42;100890.25;;;1.73;100.00
56604;BME280;42486;47.478;19.036;2023-04-10T04:21:44;100899.78;;;1.70;100.00
56604;BME280;42486;47.478;19.036;2023-04-10T04:24:48;100899.72;;;1.73;100.00
56604;BME280;42486;47.478;19.036;2023-04-10T04:27:51;100907.34;;;1.76;100.00
56604;BME280;42486;47.478;19.036;2023-04-10T04:30:54;100899.62;;;1.76;100.00
56604;BME280;42486;47.478;19.036;2023-04-10T04:33:57;100901.31;;;1.75;100.00
56604;BME280;42486;47.478;19.036;2023-04-10T04:37:00;100902.13;;;1.77;100.00
56604;BME280;42486;47.478;19.036;2023-04-10T04:40:04;100908.94;;;1.80;100.00
56604;BME280;42486;47.478;19.036;2023-04-10T04:43:07;100905.31;;;1.87;100.00
56604;BME280;42486;47.478;19.036;2023-04-10T04:46:10;100908.37;;;2.00;100.00
56604;BME280;42486;47.478;19.036;2023-04-10T04:49:13;100913.44;;;2.03;100.00
56604;BME280;42486;47.478;19.036;2023-04-10T04:52:17;100916.31;;;2.22;100.00
56604;BME280;42486;47.478;19.036;2023-04-10T04:55:19;100929.81;;;2.30;100.00
56604;BME280;42486;47.478;19.036;2023-04-10T04:58:22;100922.50;;;2.45;100.00
56604;BME280;42486;47.478;19.036;2023-04-10T05:01:26;100931.06;;;2.73;100.00
56604;BME280;42486;47.478;19.036;2023-04-10T05:04:29;100928.97;;;2.84;100.00
56604;BME280;42486;47.478;19.036;2023-04-10T05:07:31;100933.59;;;3.01;100.00
56604;BME280;42486;47.478;19.036;2023-04-10T05:10:34;100940.00;;;3.41;100.00
56604;BME280;42486;47.478;19.036;2023-04-10T05:13:39;100941.13;;;3.83;100.00
56604;BME280;42486;47.478;19.036;2023-04-10T05:16:42;100937.28;;;4.16;100.00
56604;BME280;42486;47.478;19.036;2023-04-10T05:19:45;100951.13;;;4.39;100.00
56604;BME280;42486;47.478;19.036;2023-04-10T05:22:48;100958.87;;;4.61;100.00
56604;BME280;42486;47.478;19.036;2023-04-10T05:25:51;100959.78;;;4.82;100.00
56604;BME280;42486;47.478;19.036;2023-04-10T05:28:54;100957.59;;;5.36;100.00
56604;BME280;42486;47.478;19.036;2023-04-10T05:31:57;100952.13;;;5.62;100.00
56604;BME280;42486;47.478;19.036;2023-04-10T05:35:00;100957.28;;;5.83;100.00
56604;BME280;42486;47.478;19.036;2023-04-10T05:38:02;100957.16;;;5.86;100.00
56604;BME280;42486;47.478;19.036;2023-04-10T05:41:06;100950.19;;;6.07;100.00
56604;BME280;42486;47.478;19.036;2023-04-10T05:44:10;100965.75;;;6.45;100.00
56604;BME280;42486;47.478;19.036;2023-04-10T05:47:13;100961.91;;;7.07;100.00
56604;BME280;42486;47.478;19.036;2023-04-10T05:50:17;100963.38;;;7.47;100.00
56604;BME280;42486;47.478;19.036;2023-04-10T05:53:19;100962.78;;;8.25;96.25
56604;BME280;42486;47.478;19.036;2023-04-10T05:56:23;100965.69;;;9.28;90.16
56604;BME280;42486;47.478;19.036;2023-04-10T05:59:26;100963.81;;;9.75;86.34
56604;BME280;42486;47.478;19.036;2023-04-10T06:02:29;100965.75;;;10.43;81.52
56604;BME280;42486;47.478;19.036;2023-04-10T06:05:32;100964.44;;;11.17;76.60
56604;BME280;42486;47.478;19.036;2023-04-10T06:08:35;100970.88;;;11.51;72.89
56604;BME280;42486;47.478;19.036;2023-04-10T06:11:38;100970.03;;;11.25;75.15
56604;BME280;42486;47.478;19.036;2023-04-10T06:14:41;100973.38;;;11.53;73.80
56604;BME280;42486;47.478;19.036;2023-04-10T06:17:44;100978.66;;;12.41;69.29
56604;BME280;42486;47.478;19.036;2023-04-10T06:20:47;100980.78;;;13.08;65.43
56604;BME280;42486;47.478;19.036;2023-04-10T06:23:50;100986.59;;;13.93;61.70
56604;BME280;42486;47.478;19.036;2023-04-10T06:26:53;100983.50;;;14.88;58.32
56604;BME280;42486;47.478;19.036;2023-04-10T06:29:58;100976.41;;;15.62;55.64
56604;BME280;42486;47.478;19.036;2023-04-10T06:33:02;100981.81;;;15.61;53.33
56604;BME280;42486;47.478;19.036;2023-04-10T06:36:04;100988.72;;;16.04;52.33
56604;BME280;42486;47.478;19.036;2023-04-10T06:39:08;100989.03;;;17.38;49.47
56604;BME280;42486;47.478;19.036;2023-04-10T06:42:10;100995.41;;;19.21;43.91
56604;BME280;42486;47.478;19.036;2023-04-10T06:45:13;100993.25;;;19.95;40.72
56604;BME280;42486;47.478;19.036;2023-04-10T06:48:16;101001.88;;;21.15;38.90
56604;BME280;42486;47.478;19.036;2023-04-10T06:51:19;100998.88;;;21.26;37.56
56604;BME280;42486;47.478;19.036;2023-04-10T06:54:22;101006.37;;;21.47;34.62
56604;BME280;42486;47.478;19.036;2023-04-10T06:57:25;101002.13;;;22.41;33.91
56604;BME280;42486;47.478;19.036;2023-04-10T07:00:28;101000.31;;;23.71;31.79
56604;BME280;42486;47.478;19.036;2023-04-10T07:03:32;101000.75;;;21.42;33.92
56604;BME280;42486;47.478;19.036;2023-04-10T07:06:36;100991.81;;;20.51;35.74
56604;BME280;42486;47.478;19.036;2023-04-10T07:09:39;100993.88;;;20.74;35.50
56604;BME280;42486;47.478;19.036;2023-04-10T07:12:42;100998.47;;;22.96;31.92
56604;BME280;42486;47.478;19.036;2023-04-10T07:15:46;100994.88;;;21.71;32.37
56604;BME280;42486;47.478;19.036;2023-04-10T07:18:48;101001.00;;;21.80;32.98
56604;BME280;42486;47.478;19.036;2023-04-10T07:21:52;101005.03;;;22.23;30.97
56604;BME280;42486;47.478;19.036;2023-04-10T07:24:55;100994.25;;;23.02;30.55
56604;BME280;42486;47.478;19.036;2023-04-10T07:27:57;100998.56;;;23.03;30.24
56604;BME280;42486;47.478;19.036;2023-04-10T07:31:00;100993.41;;;21.03;31.63
56604;BME280;42486;47.478;19.036;2023-04-10T07:34:04;100990.94;;;23.00;29.59
56604;BME280;42486;47.478;19.036;2023-04-10T07:37:07;100989.22;;;23.07;29.44
56604;BME280;42486;47.478;19.036;2023-04-10T07:40:10;100977.59;;;20.68;31.33
56604;BME280;42486;47.478;19.036;2023-04-10T07:43:13;100963.59;;;14.74;43.31
56604;BME280;42486;47.478;19.036;2023-04-10T07:46:17;100957.47;;;14.19;46.35
56604;BME280;42486;47.478;19.036;2023-04-10T07:49:20;100960.78;;;14.32;47.29
56604;BME280;42486;47.478;19.036;2023-04-10T07:52:23;100953.31;;;15.03;45.47
56604;BME280;42486;47.478;19.036;2023-04-10T07:55:26;100951.38;;;15.05;44.64
56604;BME280;42486;47.478;19.036;2023-04-10T07:58:29;100946.69;;;14.44;45.26
56604;BME280;42486;47.478;19.036;2023-04-10T08:01:33;100943.91;;;14.46;45.45
56604;BME280;42486;47.478;19.036;2023-04-10T08:04:37;100944.22;;;14.75;46.82
56604;BME280;42486;47.478;19.036;2023-04-10T08:07:40;100948.38;;;14.78;46.27
56604;BME280;42486;47.478;19.036;2023-04-10T08:10:43;100945.37;;;14.27;46.98
56604;BME280;42486;47.478;19.036;2023-04-10T08:13:46;100940.81;;;14.41;50.17
56604;BME280;42486;47.478;19.036;2023-04-10T08:16:49;100939.06;;;14.19;47.78
56604;BME280;42486;47.478;19.036;2023-04-10T08:19:52;100941.22;;;14.14;48.71
56604;BME280;42486;47.478;19.036;2023-04-10T08:22:55;100944.34;;;14.07;44.82
56604;BME280;42486;47.478;19.036;2023-04-10T08:26:13;100949.47;;;13.98;47.72
56604;BME280;42486;47.478;19.036;2023-04-10T08:29:17;100939.44;;;13.69;47.05
56604;BME280;42486;47.478;19.036;2023-04-10T08:32:20;100938.37;;;13.83;46.75
56604;BME280;42486;47.478;19.036;2023-04-10T08:35:24;100937.41;;;13.95;44.30
56604;BME280;42486;47.478;19.036;2023-04-10T08:38:27;100929.31;;;13.76;43.71
56604;BME280;42486;47.478;19.036;2023-04-10T08:41:30;100928.59;;;13.74;44.78
56604;BME280;42486;47.478;19.036;2023-04-10T08:44:33;100932.16;;;13.95;44.67
56604;BME280;42486;47.478;19.036;2023-04-10T08:47:38;100933.84;;;13.96;42.63
56604;BME280;42486;47.478;19.036;2023-04-10T08:50:44;100925.00;;;13.86;42.93
56604;BME280;42486;47.478;19.036;2023-04-10T08:53:50;100917.38;;;13.94;43.39
56604;BME280;42486;47.478;19.036;2023-04-10T08:56:53;100920.22;;;14.02;42.49
56604;BME280;42486;47.478;19.036;2023-04-10T08:59:56;100930.47;;;14.05;42.67
56604;BME280;42486;47.478;19.036;2023-04-10T09:03:03;100929.59;;;14.27;41.56
56604;BME280;42486;47.478;19.036;2023-04-10T09:06:06;100921.06;;;14.46;40.48
56604;BME280;42486;47.478;19.036;2023-04-10T09:09:10;100924.03;;;14.64;41.02
56604;BME280;42486;47.478;19.036;2023-04-10T09:12:13;100928.56;;;14.73;38.68
56604;BME280;42486;47.478;19.036;2023-04-10T09:15:17;100915.22;;;14.86;41.15
56604;BME280;42486;47.478;19.036;2023-04-10T09:18:20;100916.78;;;15.10;39.20
56604;BME280;42486;47.478;19.036;2023-04-10T09:21:23;100903.56;;;14.68;39.42
56604;BME280;42486;47.478;19.036;2023-04-10T09:24:26;100911.94;;;14.94;39.81
56604;BME280;42486;47.478;19.036;2023-04-10T09:27:33;100906.88;;;14.81;40.29
56604;BME280;42486;47.478;19.036;2023-04-10T09:30:38;100903.22;;;14.72;41.55
56604;BME280;42486;47.478;19.036;2023-04-10T09:33:43;100907.16;;;14.99;40.94
56604;BME280;42486;47.478;19.036;2023-04-10T09:36:54;100899.62;;;15.15;41.01
56604;BME280;42486;47.478;19.036;2023-04-10T09:39:58;100902.44;;;15.45;40.09
56604;BME280;42486;47.478;19.036;2023-04-10T09:43:01;100897.00;;;15.67;41.21
56604;BME280;42486;47.478;19.036;2023-04-10T09:46:27;100890.59;;;15.60;40.88
56604;BME280;42486;47.478;19.036;2023-04-10T09:49:37;100885.63;;;15.67;40.51
56604;BME280;42486;47.478;19.036;2023-04-10T09:52:46;100904.69;;;16.30;40.65
56604;BME280;42486;47.478;19.036;2023-04-10T09:55:49;100892.25;;;16.51;38.53
56604;BME280;42486;47.478;19.036;2023-04-10T09:58:59;100882.62;;;16.21;37.54
56604;BME280;42486;47.478;19.036;2023-04-10T10:02:02;100873.00;;;16.01;38.55
56604;BME280;42486;47.478;19.036;2023-04-10T10:05:08;100875.34;;;15.33;39.40
56604;BME280;42486;47.478;19.036;2023-04-10T10:08:11;100876.19;;;15.64;39.25
56604;BME280;42486;47.478;19.036;2023-04-10T10:11:20;100866.94;;;16.20;37.47
56604;BME280;42486;47.478;19.036;2023-04-10T10:14:24;100885.13;;;16.62;37.47
56604;BME280;42486;47.478;19.036;2023-04-10T10:17:42;100871.50;;;15.98;38.37
56604;BME280;42486;47.478;19.036;2023-04-10T10:20:49;100863.66;;;15.87;37.73
56604;BME280;42486;47.478;19.036;2023-04-10T10:23:53;100863.53;;;15.89;38.36
56604;BME280;42486;47.478;19.036;2023-04-10T10:26:56;100858.16;;;15.59;39.12
56604;BME280;42486;47.478;19.036;2023-04-10T10:30:00;100865.44;;;15.46;39.17
56604;BME280;42486;47.478;19.036;2023-04-10T10:33:21;100859.81;;;15.30;39.82
56604;BME280;42486;47.478;19.036;2023-04-10T10:36:27;100851.09;;;15.29;39.09
56604;BME280;42486;47.478;19.036;2023-04-10T10:39:31;100853.66;;;15.40;42.24
56604;BME280;42486;47.478;19.036;2023-04-10T10:43:02;100849.66;;;15.46;39.77
56604;BME280;42486;47.478;19.036;2023-04-10T10:46:01;100845.91;;;15.49;40.42
56604;BME280;42486;47.478;19.036;2023-04-10T10:49:05;100849.25;;;15.20;40.42
56604;BME280;42486;47.478;19.036;2023-04-10T10:52:09;100858.09;;;15.40;41.15
56604;BME280;42486;47.478;19.036;2023-04-10T11:02:15;100845.34;;;15.14;40.60
56604;BME280;42486;47.478;19.036;2023-04-10T11:08:48;100836.16;;;14.67;42.17
56604;BME280;42486;47.478;19.036;2023-04-10T11:11:57;100850.59;;;14.72;43.82
56604;BME280;42486;47.478;19.036;2023-04-10T11:15:03;100846.59;;;14.57;42.49
56604;BME280;42486;47.478;19.036;2023-04-10T11:18:06;100843.28;;;14.55;44.14
56604;BME280;42486;47.478;19.036;2023-04-10T11:21:16;100832.50;;;14.58;42.70
56604;BME280;42486;47.478;19.036;2023-04-10T11:24:19;100832.00;;;14.64;43.95
56604;BME280;42486;47.478;19.036;2023-04-10T11:27:38;100837.44;;;14.72;42.33
56604;BME280;42486;47.478;19.036;2023-04-10T11:30:42;100839.06;;;14.64;44.45
56604;BME280;42486;47.478;19.036;2023-04-10T11:33:45;100832.66;;;14.45;43.66
56604;BME280;42486;47.478;19.036;2023-04-10T11:36:49;100822.31;;;13.89;46.30
56604;BME280;42486;47.478;19.036;2023-04-10T11:40:01;100831.28;;;14.30;46.52
56604;BME280;42486;47.478;19.036;2023-04-10T11:43:12;100827.81;;;14.29;46.86
56604;BME280;42486;47.478;19.036;2023-04-10T11:46:15;100833.75;;;14.43;45.97
56604;BME280;42486;47.478;19.036;2023-04-10T11:49:19;100828.59;;;14.52;45.34
56604;BME280;42486;47.478;19.036;2023-04-10T11:52:24;100832.00;;;14.64;46.88
56604;BME280;42486;47.478;19.036;2023-04-10T11:55:36;100833.13;;;14.50;47.56
56604;BME280;42486;47.478;19.036;2023-04-10T11:58:40;100834.09;;;14.49;46.72
56604;BME280;42486;47.478;19.036;2023-04-10T12:01:43;100829.25;;;14.66;46.43
56604;BME280;42486;47.478;19.036;2023-04-10T12:04:45;100829.69;;;14.39;46.73
56604;BME280;42486;47.478;19.036;2023-04-10T12:07:59;100834.00;;;14.72;46.85
56604;BME280;42486;47.478;19.036;2023-04-10T12:11:02;100831.53;;;14.59;50.69
56604;BME280;42486;47.478;19.036;2023-04-10T12:14:05;100824.06;;;14.11;52.96
56604;BME280;42486;47.478;19.036;2023-04-10T12:17:09;100829.13;;;13.92;54.17
56604;BME280;42486;47.478;19.036;2023-04-10T12:20:14;100819.87;;;14.08;54.23
56604;BME280;42486;47.478;19.036;2023-04-10T12:23:18;100817.13;;;14.10;51.80
56604;BME280;42486;47.478;19.036;2023-04-10T12:26:22;100811.22;;;14.29;49.64
56604;BME280;42486;47.478;19.036;2023-04-10T12:29:25;100815.09;;;14.46;49.63
56604;BME280;42486;47.478;19.036;2023-04-10T12:32:31;100801.69;;;14.49;47.93
56604;BME280;42486;47.478;19.036;2023-04-10T12:35:37;100795.44;;;14.29;49.19
56604;BME280;42486;47.478;19.036;2023-04-10T12:38:41;100794.56;;;14.07;49.51
56604;BME280;42486;47.478;19.036;2023-04-10T12:41:45;100789.81;;;13.35;51.16
56604;BME280;42486;47.478;19.036;2023-04-10T12:44:49;100784.81;;;13.43;51.78
56604;BME280;42486;47.478;19.036;2023-04-10T12:47:53;100781.38;;;13.86;50.42
56604;BME280;42486;47.478;19.036;2023-04-10T12:50:58;100766.16;;;14.01;51.27
56604;BME280;42486;47.478;19.036;2023-04-10T12:54:01;100760.69;;;14.04;49.77
56604;BME280;42486;47.478;19.036;2023-04-10T12:57:06;100753.81;;;13.81;49.99
56604;BME280;42486;47.478;19.036;2023-04-10T13:00:11;100750.28;;;14.03;50.56
56604;BME280;42486;47.478;19.036;2023-04-10T13:03:16;100741.56;;;14.56;49.30
56604;BME280;42486;47.478;19.036;2023-04-10T13:06:19;100736.59;;;14.83;48.19
56604;BME280;42486;47.478;19.036;2023-04-10T13:09:22;100734.84;;;14.93;48.40
56604;BME280;42486;47.478;19.036;2023-04-10T13:12:26;100737.75;;;14.90;48.58
56604;BME280;42486;47.478;19.036;2023-04-10T13:15:30;100735.22;;;14.58;49.07
56604;BME280;42486;47.478;19.036;2023-04-10T13:18:36;100720.62;;;15.06;48.31
56604;BME280;42486;47.478;19.036;2023-04-10T13:21:39;100729.22;;;15.48;47.57
56604;BME280;42486;47.478;19.036;2023-04-10T13:24:42;100718.59;;;15.19;47.41
56604;BME280;42486;47.478;19.036;2023-04-10T13:27:46;100710.59;;;15.30;46.82
56604;BME280;42486;47.478;19.036;2023-04-10T13:30:49;100709.09;;;15.47;46.34
56604;BME280;42486;47.478;19.036;2023-04-10T13:33:52;100700.50;;;15.45;45.65
56604;BME280;42486;47.478;19.036;2023-04-10T13:36:55;100703.44;;;15.52;45.15
56604;BME280;42486;47.478;19.036;2023-04-10T13:39:59;100695.13;;;15.56;48.10
56604;BME280;42486;47.478;19.036;2023-04-10T13:43:02;100687.03;;;14.88;46.72
56604;BME280;42486;47.478;19.036;2023-04-10T13:46:08;100679.06;;;14.48;48.09
56604;BME280;42486;47.478;19.036;2023-04-10T13:49:11;100667.22;;;14.53;48.21
56604;BME280;42486;47.478;19.036;2023-04-10T13:52:18;100664.63;;;14.84;47.98
56604;BME280;42486;47.478;19.036;2023-04-10T13:55:22;100666.47;;;15.13;47.77
56604;BME280;42486;47.478;19.036;2023-04-10T13:58:25;100669.31;;;15.31;47.98
56604;BME280;42486;47.478;19.036;2023-04-10T14:01:33;100659.59;;;15.31;47.15
56604;BME280;42486;47.478;19.036;2023-04-10T14:04:36;100658.53;;;15.63;46.63
56604;BME280;42486;47.478;19.036;2023-04-10T14:07:39;100646.63;;;15.69;46.48
56604;BME280;42486;47.478;19.036;2023-04-10T14:10:44;100642.03;;;15.51;44.67
56604;BME280;42486;47.478;19.036;2023-04-10T14:13:47;100635.94;;;15.60;44.49
56604;BME280;42486;47.478;19.036;2023-04-10T14:16:51;100637.31;;;15.64;45.40
56604;BME280;42486;47.478;19.036;2023-04-10T14:19:54;100629.44;;;15.74;45.09
56604;BME280;42486;47.478;19.036;2023-04-10T14:22:57;100617.22;;;15.93;43.71
56604;BME280;42486;47.478;19.036;2023-04-10T14:26:00;100619.31;;;15.89;45.03
56604;BME280;42486;47.478;19.036;2023-04-10T14:29:03;100615.69;;;16.00;44.40
56604;BME280;42486;47.478;19.036;2023-04-10T14:32:09;100609.00;;;16.05;42.36
56604;BME280;42486;47.478;19.036;2023-04-10T14:35:12;100601.97;;;15.96;43.64
56604;BME280;42486;47.478;19.036;2023-04-10T14:38:15;100594.00;;;16.16;43.26
56604;BME280;42486;47.478;19.036;2023-04-10T14:41:18;100592.69;;;16.39;44.14
56604;BME280;42486;47.478;19.036;2023-04-10T14:44:21;100596.66;;;16.16;43.53
56604;BME280;42486;47.478;19.036;2023-04-10T14:47:24;100583.94;;;15.92;44.49
56604;BME280;42486;47.478;19.036;2023-04-10T14:50:30;100590.63;;;15.57;43.48
56604;BME280;42486;47.478;19.036;2023-04-10T14:53:33;100579.94;;;15.19;44.18
56604;BME280;42486;47.478;19.036;2023-04-10T14:56:36;100582.25;;;15.13;45.00
56604;BME280;42486;47.478;19.036;2023-04-10T14:59:39;100583.38;;;15.01;44.41
56604;BME280;42486;47.478;19.036;2023-04-10T15:02:42;100573.50;;;14.83;45.29
56604;BME280;42486;47.478;19.036;2023-04-10T15:05:46;100570.66;;;14.65;47.05
56604;BME280;42486;47.478;19.036;2023-04-10T15:08:49;100569.91;;;14.94;45.84
56604;BME280;42486;47.478;19.036;2023-04-10T15:11:52;100563.56;;;14.96;44.74
56604;BME280;42486;47.478;19.036;2023-04-10T15:14:58;100563.41;;;15.08;45.48
56604;BME280;42486;47.478;19.036;2023-04-10T15:18:01;100556.91;;;14.92;44.59
56604;BME280;42486;47.478;19.036;2023-04-10T15:21:04;100557.28;;;14.78;44.86
56604;BME280;42486;47.478;19.036;2023-04-10T15:24:07;100545.66;;;14.71;47.37
56604;BME280;42486;47.478;19.036;2023-04-10T15:27:09;100546.31;;;14.63;46.80
56604;BME280;42486;47.478;19.036;2023-04-10T15:30:12;100538.22;;;14.45;46.28
56604;BME280;42486;47.478;19.036;2023-04-10T15:33:15;100538.22;;;14.45;46.79
56604;BME280;42486;47.478;19.036;2023-04-10T15:36:18;100531.66;;;14.61;46.54
56604;BME280;42486;47.478;19.036;2023-04-10T15:39:20;100530.16;;;14.78;45.88
56604;BME280;42486;47.478;19.036;2023-04-10T15:42:23;100531.16;;;14.96;44.65
56604;BME280;42486;47.478;19.036;2023-04-10T15:45:26;100530.47;;;15.23;46.62
56604;BME280;42486;47.478;19.036;2023-04-10T15:48:28;100533.09;;;15.23;44.14
56604;BME280;42486;47.478;19.036;2023-04-10T15:51:31;100531.03;;;15.17;44.32
56604;BME280;42486;47.478;19.036;2023-04-10T15:54:34;100523.56;;;15.03;44.03
56604;BME280;42486;47.478;19.036;2023-04-10T15:57:37;100527.28;;;14.90;44.68
56604;BME280;42486;47.478;19.036;2023-04-10T16:00:40;100516.31;;;14.85;45.61
56604;BME280;42486;47.478;19.036;2023-04-10T16:03:43;100519.22;;;14.72;45.53
56604;BME280;42486;47.478;19.036;2023-04-10T16:06:47;100523.09;;;14.68;46.03
56604;BME280;42486;47.478;19.036;2023-04-10T16:09:49;100513.41;;;14.69;45.58
56604;BME280;42486;47.478;19.036;2023-04-10T16:12:53;100504.94;;;14.75;46.56